Time,TemperatureF,DewpointF,PressureIn,WindDirection,WindDirectionDegrees,WindSpeedMPH,WindSpeedGustMPH,Humidity,HourlyPrecipIn,Conditions,Clouds,dailyrainin,SolarRadiationWatts/m^2,SoftwareType,DateUTC
2013-02-16 00:00:00,58.7,22.0,30.11,NW,317,0.0,0.0,24,0.00,,,0.00,0,Wunderground v.1.15,2013-02-16 08:00:00,
2013-02-16 00:05:00,58.5,22.8,30.11,NW,323,0.0,0.0,25,0.00,,,0.00,0,Wunderground v.1.15,2013-02-16 08:05:00,
2013-02-16 00:14:00,58.1,22.4,30.10,NW,323,0.0,0.0,25,0.00,,,0.00,0,Wunderground v.1.15,2013-02-16 08:14:00,
2013-02-16 00:19:00,57.9,23.2,30.10,NW,323,1.0,1.0,26,0.00,,,0.00,0,Wunderground v.1.15,2013-02-16 08:19:00,
2013-02-16 00:24:00,57.5,23.7,30.10,NW,323,0.0,1.0,27,0.00,,,0.00,0,Wunderground v.1.15,2013-02-16 08:24:00,
2013-02-16 00:35:00,56.8,23.1,30.10,NW,323,1.0,1.0,27,0.00,,,0.00,0,Wunderground v.1.15,2013-02-16 08:35:00,
2013-02-16 00:44:00,56.3,24.4,30.10,NW,323,0.0,0.0,29,0.00,,,0.00,0,Wunderground v.1.15,2013-02-16 08:44:00,
2013-02-16 00:49:00,55.9,24.9,30.09,NW,323,0.0,0.0,30,0.00,,,0.00,0,Wunderground v.1.15,2013-02-16 08:49:00,
2013-02-16 00:54:00,55.6,25.4,30.09,NW,323,0.0,0.0,31,0.00,,,0.00,0,Wunderground v.1.15,2013-02-16 08:54:00,
2013-02-16 01:00:00,55.3,24.4,30.10,NW,323,0.0,0.0,30,0.00,,,0.00,0,Wunderground v.1.15,2013-02-16 09:00:00,
2013-02-16 01:05:00,55.2,24.3,30.10,NW,323,0.0,0.0,30,0.00,,,0.00,0,Wunderground v.1.15,2013-02-16 09:05:00,
2013-02-16 01:14:00,55.4,21.9,30.10,NW,325,0.0,0.0,27,0.00,,,0.00,0,Wunderground v.1.15,2013-02-16 09:14:00,
2013-02-16 01:19:00,55.8,22.3,30.09,WNW,295,0.0,0.0,27,0.00,,,0.00,0,Wunderground v.1.15,2013-02-16 09:19:00,
2013-02-16 01:24:00,56.2,20.8,30.09,North,6,0.0,0.0,25,0.00,,,0.00,0,Wunderground v.1.15,2013-02-16 09:24:00,
2013-02-16 01:30:00,56.9,21.4,30.09,WNW,286,0.0,0.0,25,0.00,,,0.00,0,Wunderground v.1.15,2013-02-16 09:30:00,
2013-02-16 01:39:00,57.7,21.1,30.09,NNE,18,0.0,0.0,24,0.00,,,0.00,0,Wunderground v.1.15,2013-02-16 09:39:00,
2013-02-16 01:44:00,58.6,19.8,30.09,SSW,202,0.0,0.0,22,0.00,,,0.00,0,Wunderground v.1.15,2013-02-16 09:44:00,
2013-02-16 01:49:00,59.2,19.2,30.09,West,280,0.0,0.0,21,0.00,,,0.00,0,Wunderground v.1.15,2013-02-16 09:49:00,
2013-02-16 01:55:00,59.8,20.8,30.09,WNW,297,0.0,0.0,22,0.00,,,0.00,0,Wunderground v.1.15,2013-02-16 09:55:00,
2013-02-16 02:05:00,59.7,19.6,30.09,North,359,0.0,0.0,21,0.00,,,0.00,0,Wunderground v.1.15,2013-02-16 10:05:00,
2013-02-16 02:15:00,59.7,18.5,30.09,North,0,0.0,0.0,20,0.00,,,0.00,0,Wunderground v.1.15,2013-02-16 10:15:00,
2013-02-16 02:24:00,59.5,19.5,30.09,NE,38,0.0,0.0,21,0.00,,,0.00,0,Wunderground v.1.15,2013-02-16 10:24:00,
2013-02-16 02:30:00,59.5,19.5,30.09,NE,41,0.0,0.0,21,0.00,,,0.00,0,Wunderground v.1.15,2013-02-16 10:30:00,
2013-02-16 02:39:00,59.4,18.3,30.09,NE,38,0.0,0.0,20,0.00,,,0.00,0,Wunderground v.1.15,2013-02-16 10:39:00,
2013-02-16 02:44:00,59.3,18.2,30.09,NE,46,0.0,0.0,20,0.00,,,0.00,0,Wunderground v.1.15,2013-02-16 10:44:00,
2013-02-16 02:50:00,59.4,18.3,30.09,NE,46,0.0,0.0,20,0.00,,,0.00,0,Wunderground v.1.15,2013-02-16 10:50:00,
2013-02-16 02:59:00,59.5,19.5,30.09,North,4,0.0,0.0,21,0.00,,,0.00,0,Wunderground v.1.15,2013-02-16 10:59:00,
2013-02-16 03:04:00,59.3,17.0,30.09,North,4,0.0,0.0,19,0.00,,,0.00,0,Wunderground v.1.15,2013-02-16 11:04:00,
2013-02-16 03:10:00,59.2,18.1,30.09,North,6,0.0,0.0,20,0.00,,,0.00,0,Wunderground v.1.15,2013-02-16 11:10:00,
2013-02-16 03:19:00,59.0,17.9,30.09,North,6,0.0,0.0,20,0.00,,,0.00,0,Wunderground v.1.15,2013-02-16 11:19:00,
2013-02-16 03:25:00,58.9,16.7,30.08,North,6,0.0,0.0,19,0.00,,,0.00,0,Wunderground v.1.15,2013-02-16 11:25:00,
2013-02-16 03:34:00,59.0,17.9,30.08,North,6,0.0,1.0,20,0.00,,,0.00,0,Wunderground v.1.15,2013-02-16 11:34:00,
2013-02-16 03:39:00,59.0,16.7,30.08,North,6,0.0,0.0,19,0.00,,,0.00,0,Wunderground v.1.15,2013-02-16 11:39:00,
2013-02-16 03:49:00,59.0,19.1,30.08,North,357,0.0,0.0,21,0.00,,,0.00,0,Wunderground v.1.15,2013-02-16 11:49:00,
2013-02-16 03:59:00,58.3,17.3,30.08,North,357,0.0,0.0,20,0.00,,,0.00,0,Wunderground v.1.15,2013-02-16 11:59:00,
2013-02-16 04:05:00,58.0,18.2,30.08,North,357,0.0,0.0,21,0.00,,,0.00,0,Wunderground v.1.15,2013-02-16 12:05:00,
2013-02-16 04:15:00,57.6,17.9,30.09,North,357,0.0,0.0,21,0.00,,,0.00,0,Wunderground v.1.15,2013-02-16 12:15:00,
2013-02-16 04:24:00,58.0,17.1,30.09,North,357,0.0,0.0,20,0.00,,,0.00,0,Wunderground v.1.15,2013-02-16 12:24:00,
2013-02-16 04:30:00,58.2,17.3,30.08,North,357,0.0,0.0,20,0.00,,,0.00,0,Wunderground v.1.15,2013-02-16 12:30:00,
2013-02-16 04:34:00,58.4,16.2,30.09,North,357,0.0,0.0,19,0.00,,,0.00,0,Wunderground v.1.15,2013-02-16 12:34:00,
2013-02-16 04:44:00,58.6,16.4,30.08,NNE,27,0.0,0.0,19,0.00,,,0.00,0,Wunderground v.1.15,2013-02-16 12:44:00,
2013-02-16 04:54:00,58.6,16.4,30.09,NNE,27,0.0,0.0,19,0.00,,,0.00,0,Wunderground v.1.15,2013-02-16 12:54:00,
2013-02-16 05:00:00,58.6,16.4,30.09,NNW,348,0.0,0.0,19,0.00,,,0.00,0,Wunderground v.1.15,2013-02-16 13:00:00,
2013-02-16 05:05:00,58.7,16.5,30.09,NNW,348,0.0,0.0,19,0.00,,,0.00,0,Wunderground v.1.15,2013-02-16 13:05:00,
2013-02-16 05:14:00,58.6,16.4,30.09,North,349,0.0,0.0,19,0.00,,,0.00,0,Wunderground v.1.15,2013-02-16 13:14:00,
2013-02-16 05:19:00,58.6,16.4,30.09,North,349,0.0,0.0,19,0.00,,,0.00,0,Wunderground v.1.15,2013-02-16 13:19:00,
2013-02-16 05:25:00,58.6,16.4,30.09,North,349,0.0,0.0,19,0.00,,,0.00,0,Wunderground v.1.15,2013-02-16 13:25:00,
2013-02-16 05:34:00,58.7,16.5,30.09,North,350,0.0,0.0,19,0.00,,,0.00,0,Wunderground v.1.15,2013-02-16 13:34:00,
2013-02-16 05:40:00,58.7,16.5,30.09,North,350,0.0,0.0,19,0.00,,,0.00,0,Wunderground v.1.15,2013-02-16 13:40:00,
2013-02-16 05:49:00,58.8,17.8,30.09,North,350,0.0,0.0,20,0.00,,,0.00,0,Wunderground v.1.15,2013-02-16 13:49:00,
2013-02-16 05:55:00,58.8,16.6,30.09,NNE,19,0.0,0.0,19,0.00,,,0.00,0,Wunderground v.1.15,2013-02-16 13:55:00,
2013-02-16 06:05:00,59.2,16.9,30.09,NE,41,0.0,0.0,19,0.00,,,0.00,0,Wunderground v.1.15,2013-02-16 14:05:00,
2013-02-16 06:10:00,59.4,17.1,30.09,NE,41,1.0,1.0,19,0.00,,,0.00,0,Wunderground v.1.15,2013-02-16 14:10:00,
2013-02-16 06:19:00,59.6,17.2,30.09,North,359,0.0,0.0,19,0.00,,,0.00,0,Wunderground v.1.15,2013-02-16 14:19:00,
2013-02-16 06:24:00,59.5,17.1,30.09,North,359,0.0,0.0,19,0.00,,,0.00,0,Wunderground v.1.15,2013-02-16 14:24:00,
2013-02-16 06:34:00,59.6,18.4,30.09,North,359,0.0,0.0,20,0.00,,,0.00,0,Wunderground v.1.15,2013-02-16 14:34:00,
2013-02-16 06:39:00,59.5,17.1,30.09,North,359,0.0,0.0,19,0.00,,,0.00,0,Wunderground v.1.15,2013-02-16 14:39:00,
2013-02-16 06:49:00,59.6,18.4,30.10,North,0,0.0,0.0,20,0.00,,,0.00,0,Wunderground v.1.15,2013-02-16 14:49:00,
2013-02-16 06:54:00,59.4,18.3,30.10,North,0,0.0,0.0,20,0.00,,,0.00,0,Wunderground v.1.15,2013-02-16 14:54:00,
2013-02-16 07:05:00,59.3,18.2,30.10,North,0,0.0,0.0,20,0.00,,,0.00,0,Wunderground v.1.15,2013-02-16 15:05:00,
2013-02-16 07:14:00,59.6,19.6,30.11,North,0,0.0,0.0,21,0.00,,,0.00,0,Wunderground v.1.15,2013-02-16 15:14:00,
2013-02-16 07:24:00,60.0,22.0,30.11,North,8,3.0,3.0,23,0.00,,,0.00,0,Wunderground v.1.15,2013-02-16 15:24:00,
2013-02-16 07:29:00,60.1,23.1,30.11,ENE,66,0.0,0.0,24,0.00,,,0.00,0,Wunderground v.1.15,2013-02-16 15:29:00,
2013-02-16 07:35:00,60.2,20.1,30.11,NE,55,0.0,0.0,21,0.00,,,0.00,0,Wunderground v.1.15,2013-02-16 15:35:00,
2013-02-16 07:44:00,60.9,20.7,30.11,NE,55,0.0,0.0,21,0.00,,,0.00,0,Wunderground v.1.15,2013-02-16 15:44:00,
2013-02-16 07:54:00,61.8,22.5,30.11,NE,40,0.0,1.0,22,0.00,,,0.00,0,Wunderground v.1.15,2013-02-16 15:54:00,
2013-02-16 07:59:00,62.1,22.8,30.11,NE,38,0.0,0.0,22,0.00,,,0.00,0,Wunderground v.1.15,2013-02-16 15:59:00,
2013-02-16 08:05:00,62.5,22.0,30.11,NE,38,0.0,0.0,21,0.00,,,0.00,0,Wunderground v.1.15,2013-02-16 16:05:00,
2013-02-16 08:14:00,63.2,25.8,30.11,NE,38,0.0,0.0,24,0.00,,,0.00,0,Wunderground v.1.15,2013-02-16 16:14:00,
2013-02-16 08:19:00,63.7,26.2,30.11,NE,38,0.0,0.0,24,0.00,,,0.00,0,Wunderground v.1.15,2013-02-16 16:19:00,
2013-02-16 08:24:00,64.3,26.7,30.11,NE,38,0.0,0.0,24,0.00,,,0.00,0,Wunderground v.1.15,2013-02-16 16:24:00,
2013-02-16 08:30:00,64.9,27.2,30.12,NE,39,0.0,0.0,24,0.00,,,0.00,0,Wunderground v.1.15,2013-02-16 16:30:00,
2013-02-16 08:39:00,66.4,25.2,30.11,NE,39,0.0,0.0,21,0.00,,,0.00,0,Wunderground v.1.15,2013-02-16 16:39:00,
2013-02-16 08:44:00,67.2,25.9,30.11,NE,40,0.0,0.0,21,0.00,,,0.00,0,Wunderground v.1.15,2013-02-16 16:44:00,
2013-02-16 08:50:00,68.1,26.7,30.11,East,98,0.0,0.0,21,0.00,,,0.00,0,Wunderground v.1.15,2013-02-16 16:50:00,
2013-02-16 08:59:00,69.7,25.6,30.11,SE,138,0.0,0.0,19,0.00,,,0.00,0,Wunderground v.1.15,2013-02-16 16:59:00,
2013-02-16 09:05:00,70.1,28.3,30.11,SE,138,1.0,1.0,21,0.00,,,0.00,0,Wunderground v.1.15,2013-02-16 17:05:00,
2013-02-16 09:14:00,70.3,28.5,30.11,SE,138,0.0,0.0,21,0.00,,,0.00,0,Wunderground v.1.15,2013-02-16 17:14:00,
2013-02-16 09:20:00,70.9,26.5,30.11,SE,131,1.0,1.0,19,0.00,,,0.00,0,Wunderground v.1.15,2013-02-16 17:20:00,
2013-02-16 09:29:00,72.2,27.6,30.11,ENE,62,0.0,0.0,19,0.00,,,0.00,0,Wunderground v.1.15,2013-02-16 17:29:00,
2013-02-16 09:39:00,73.1,29.6,30.11,ENE,62,1.0,1.0,20,0.00,,,0.00,0,Wunderground v.1.15,2013-02-16 17:39:00,
2013-02-16 09:44:00,73.4,29.9,30.11,East,85,1.0,1.0,20,0.00,,,0.00,0,Wunderground v.1.15,2013-02-16 17:44:00,
2013-02-16 09:50:00,73.5,28.7,30.11,SSW,192,1.0,1.0,19,0.00,,,0.00,0,Wunderground v.1.15,2013-02-16 17:50:00,
2013-02-16 09:59:00,73.8,30.2,30.11,South,190,3.0,3.0,20,0.00,,,0.00,0,Wunderground v.1.15,2013-02-16 17:59:00,
2013-02-16 10:04:00,73.6,30.0,30.11,South,190,2.0,3.0,20,0.00,,,0.00,0,Wunderground v.1.15,2013-02-16 18:04:00,
2013-02-16 10:14:00,72.7,29.3,30.10,SSW,196,0.0,0.0,20,0.00,,,0.00,0,Wunderground v.1.15,2013-02-16 18:14:00,
2013-02-16 10:19:00,73.0,28.3,30.10,SSW,195,0.0,0.0,19,0.00,,,0.00,0,Wunderground v.1.15,2013-02-16 18:19:00,
2013-02-16 10:24:00,73.7,26.1,30.10,SSW,200,2.0,2.0,17,0.00,,,0.00,0,Wunderground v.1.15,2013-02-16 18:24:00,
2013-02-16 10:30:00,74.3,25.2,30.11,SE,146,2.0,2.0,16,0.00,,,0.00,0,Wunderground v.1.15,2013-02-16 18:30:00,
2013-02-16 10:39:00,74.9,25.6,30.11,SSW,195,0.0,0.0,16,0.00,,,0.00,0,Wunderground v.1.15,2013-02-16 18:39:00,
2013-02-16 10:44:00,74.9,25.6,30.10,South,191,4.0,4.0,16,0.00,,,0.00,0,Wunderground v.1.15,2013-02-16 18:44:00,
2013-02-16 10:50:00,75.1,24.3,30.10,South,186,4.0,4.0,15,0.00,,,0.00,0,Wunderground v.1.15,2013-02-16 18:50:00,
2013-02-16 10:59:00,75.4,24.5,30.10,SSW,210,3.0,3.0,15,0.00,,,0.00,0,Wunderground v.1.15,2013-02-16 18:59:00,
2013-02-16 11:05:00,75.8,24.8,30.09,SSW,210,1.0,3.0,15,0.00,,,0.00,0,Wunderground v.1.15,2013-02-16 19:05:00,
2013-02-16 11:14:00,77.4,26.1,30.09,SSW,210,2.0,2.0,15,0.00,,,0.00,0,Wunderground v.1.15,2013-02-16 19:14:00,
2013-02-16 11:19:00,78.0,26.6,30.08,SSW,213,0.0,0.0,15,0.00,,,0.00,0,Wunderground v.1.15,2013-02-16 19:19:00,
2013-02-16 11:24:00,78.1,28.2,30.08,South,191,4.0,4.0,16,0.00,,,0.00,0,Wunderground v.1.15,2013-02-16 19:24:00,
2013-02-16 11:30:00,78.1,26.7,30.08,South,170,0.0,0.0,15,0.00,,,0.00,0,Wunderground v.1.15,2013-02-16 19:30:00,
2013-02-16 11:39:00,78.1,25.0,30.07,SSW,210,0.0,0.0,14,0.00,,,0.00,0,Wunderground v.1.15,2013-02-16 19:39:00,
2013-02-16 11:44:00,78.3,26.8,30.07,SW,223,0.0,0.0,15,0.00,,,0.00,0,Wunderground v.1.15,2013-02-16 19:44:00,
2013-02-16 11:54:00,78.7,27.1,30.06,SSW,196,1.0,4.0,15,0.00,,,0.00,0,Wunderground v.1.15,2013-02-16 19:54:00,
2013-02-16 11:59:00,79.0,27.4,30.06,West,264,0.0,0.0,15,0.00,,,0.00,0,Wunderground v.1.15,2013-02-16 19:59:00,
2013-02-16 12:04:00,79.6,27.9,30.05,West,261,2.0,2.0,15,0.00,,,0.00,0,Wunderground v.1.15,2013-02-16 20:04:00,
2013-02-16 12:14:00,80.8,28.8,30.05,WSW,257,0.0,1.0,15,0.00,,,0.00,0,Wunderground v.1.15,2013-02-16 20:14:00,
2013-02-16 12:19:00,81.6,29.4,30.04,WSW,257,0.0,0.0,15,0.00,,,0.00,0,Wunderground v.1.15,2013-02-16 20:19:00,
2013-02-16 12:29:00,82.7,30.3,30.03,WNW,296,0.0,0.0,15,0.00,,,0.00,0,Wunderground v.1.15,2013-02-16 20:29:00,
2013-02-16 12:34:00,82.4,28.4,30.03,WNW,299,0.0,0.0,14,0.00,,,0.00,0,Wunderground v.1.15,2013-02-16 20:34:00,
2013-02-16 12:44:00,82.9,28.8,30.02,NW,312,0.0,0.0,14,0.00,,,0.00,0,Wunderground v.1.15,2013-02-16 20:44:00,
2013-02-16 12:49:00,83.2,30.7,30.02,NW,308,0.0,0.0,15,0.00,,,0.00,0,Wunderground v.1.15,2013-02-16 20:49:00,
2013-02-16 12:55:00,83.5,29.3,30.01,WNW,292,0.0,0.0,14,0.00,,,0.00,0,Wunderground v.1.15,2013-02-16 20:55:00,
2013-02-16 13:04:00,83.0,28.9,30.01,West,279,0.0,0.0,14,0.00,,,0.00,0,Wunderground v.1.15,2013-02-16 21:04:00,
2013-02-16 13:15:00,81.2,25.7,30.01,West,268,4.0,4.0,13,0.00,,,0.00,0,Wunderground v.1.15,2013-02-16 21:15:00,
2013-02-16 13:24:00,78.9,27.3,30.01,NNW,331,0.0,0.0,15,0.00,,,0.00,0,Wunderground v.1.15,2013-02-16 21:24:00,
2013-02-16 13:29:00,79.4,27.7,30.00,NW,315,0.0,0.0,15,0.00,,,0.00,0,Wunderground v.1.15,2013-02-16 21:29:00,
2013-02-16 13:39:00,79.6,27.9,30.00,SW,224,4.0,4.0,15,0.00,,,0.00,0,Wunderground v.1.15,2013-02-16 21:39:00,
2013-02-16 13:44:00,80.1,28.3,30.00,WNW,284,0.0,4.0,15,0.00,,,0.00,0,Wunderground v.1.15,2013-02-16 21:44:00,
2013-02-16 13:50:00,81.0,29.0,29.99,East,95,0.0,0.0,15,0.00,,,0.00,0,Wunderground v.1.15,2013-02-16 21:50:00,
2013-02-16 13:59:00,81.6,27.8,29.99,WSW,238,0.0,0.0,14,0.00,,,0.00,0,Wunderground v.1.15,2013-02-16 21:59:00,
2013-02-16 14:05:00,82.0,29.8,29.98,NW,317,1.0,1.0,15,0.00,,,0.00,0,Wunderground v.1.15,2013-02-16 22:05:00,
2013-02-16 14:14:00,81.6,27.8,29.98,NW,322,4.0,4.0,14,0.00,,,0.00,0,Wunderground v.1.15,2013-02-16 22:14:00,
2013-02-16 14:19:00,81.7,27.8,29.98,SW,222,0.0,0.0,14,0.00,,,0.00,0,Wunderground v.1.15,2013-02-16 22:19:00,
2013-02-16 14:24:00,81.9,29.7,29.98,WSW,244,2.0,2.0,15,0.00,,,0.00,0,Wunderground v.1.15,2013-02-16 22:24:00,
2013-02-16 14:30:00,82.2,29.9,29.97,NW,323,0.0,0.0,15,0.00,,,0.00,0,Wunderground v.1.15,2013-02-16 22:30:00,
2013-02-16 14:39:00,83.1,28.9,29.97,NW,304,4.0,4.0,14,0.00,,,0.00,0,Wunderground v.1.15,2013-02-16 22:39:00,
2013-02-16 14:45:00,82.9,27.0,29.97,South,184,2.0,4.0,13,0.00,,,0.00,0,Wunderground v.1.15,2013-02-16 22:45:00,
2013-02-16 14:54:00,81.5,27.7,29.97,WNW,297,0.0,3.0,14,0.00,,,0.00,0,Wunderground v.1.15,2013-02-16 22:54:00,
2013-02-16 14:59:00,81.0,27.3,29.97,SSW,194,0.0,0.0,14,0.00,,,0.00,0,Wunderground v.1.15,2013-02-16 22:59:00,
2013-02-16 15:05:00,81.0,27.3,29.97,WSW,250,1.0,1.0,14,0.00,,,0.00,0,Wunderground v.1.15,2013-02-16 23:05:00,
2013-02-16 15:14:00,80.5,25.1,29.96,WSW,254,3.0,3.0,13,0.00,,,0.00,0,Wunderground v.1.15,2013-02-16 23:14:00,
2013-02-16 15:19:00,80.1,26.6,29.96,West,281,3.0,3.0,14,0.00,,,0.00,0,Wunderground v.1.15,2013-02-16 23:19:00,
2013-02-16 15:29:00,79.4,27.7,29.96,WSW,252,1.0,1.0,15,0.00,,,0.00,0,Wunderground v.1.15,2013-02-16 23:29:00,
2013-02-16 15:34:00,79.5,27.8,29.96,SW,236,0.0,1.0,15,0.00,,,0.00,0,Wunderground v.1.15,2013-02-16 23:34:00,
2013-02-16 15:44:00,79.6,26.2,29.96,WNW,283,4.0,4.0,14,0.00,,,0.00,0,Wunderground v.1.15,2013-02-16 23:44:00,
2013-02-16 15:49:00,79.8,26.3,29.96,SSW,206,0.0,0.0,14,0.00,,,0.00,0,Wunderground v.1.15,2013-02-16 23:49:00,
2013-02-16 15:54:00,79.7,27.9,29.96,WNW,302,2.0,2.0,15,0.00,,,0.00,0,Wunderground v.1.15,2013-02-16 23:54:00,
2013-02-16 15:59:00,80.0,26.5,29.95,West,280,2.0,2.0,14,0.00,,,0.00,0,Wunderground v.1.15,2013-02-16 23:59:00,
2013-02-16 16:05:00,79.9,26.4,29.95,West,278,0.0,2.0,14,0.00,,,0.00,0,Wunderground v.1.15,2013-02-17 00:05:00,
2013-02-16 16:15:00,79.4,27.7,29.95,WNW,292,0.0,0.0,15,0.00,,,0.00,0,Wunderground v.1.15,2013-02-17 00:15:00,
2013-02-16 16:24:00,79.1,25.8,29.95,WNW,293,2.0,2.0,14,0.00,,,0.00,0,Wunderground v.1.15,2013-02-17 00:24:00,
2013-02-16 16:29:00,79.0,25.7,29.95,West,262,3.0,3.0,14,0.00,,,0.00,0,Wunderground v.1.15,2013-02-17 00:29:00,
2013-02-16 16:39:00,78.5,25.3,29.95,NW,304,0.0,0.0,14,0.00,,,0.00,0,Wunderground v.1.15,2013-02-17 00:39:00,
2013-02-16 16:44:00,78.4,26.9,29.95,WNW,299,0.0,0.0,15,0.00,,,0.00,0,Wunderground v.1.15,2013-02-17 00:44:00,
2013-02-16 16:54:00,78.3,26.8,29.95,NW,307,0.0,0.0,15,0.00,,,0.00,0,Wunderground v.1.15,2013-02-17 00:54:00,
2013-02-16 16:59:00,78.2,26.7,29.95,NW,307,0.0,0.0,15,0.00,,,0.00,0,Wunderground v.1.15,2013-02-17 00:59:00,
2013-02-16 17:05:00,78.0,28.1,29.94,NW,308,0.0,0.0,16,0.00,,,0.00,0,Wunderground v.1.15,2013-02-17 01:05:00,
2013-02-16 17:14:00,76.7,27.1,29.95,NNW,330,0.0,1.0,16,0.00,,,0.00,0,Wunderground v.1.15,2013-02-17 01:14:00,
2013-02-16 17:19:00,75.3,26.0,29.95,NW,322,5.0,5.0,16,0.00,,,0.00,0,Wunderground v.1.15,2013-02-17 01:19:00,
2013-02-16 17:29:00,72.8,25.4,29.95,NW,310,0.0,0.0,17,0.00,,,0.00,0,Wunderground v.1.15,2013-02-17 01:29:00,
2013-02-16 17:35:00,72.0,24.8,29.95,NW,310,3.0,3.0,17,0.00,,,0.00,0,Wunderground v.1.15,2013-02-17 01:35:00,
2013-02-16 17:44:00,70.7,26.4,29.95,NW,313,0.0,1.0,19,0.00,,,0.00,0,Wunderground v.1.15,2013-02-17 01:44:00,
2013-02-16 17:49:00,70.1,24.6,29.95,NW,314,0.0,0.0,18,0.00,,,0.00,0,Wunderground v.1.15,2013-02-17 01:49:00,
2013-02-16 17:54:00,69.5,25.4,29.95,NW,322,1.0,1.0,19,0.00,,,0.00,0,Wunderground v.1.15,2013-02-17 01:54:00,
2013-02-16 18:05:00,68.9,23.6,29.95,NW,326,0.0,4.0,18,0.00,,,0.00,0,Wunderground v.1.15,2013-02-17 02:05:00,
2013-02-16 18:14:00,68.6,24.7,29.95,NNW,329,0.0,0.0,19,0.00,,,0.00,0,Wunderground v.1.15,2013-02-17 02:14:00,
2013-02-16 18:19:00,68.3,26.8,29.95,NNW,329,1.0,1.0,21,0.00,,,0.00,0,Wunderground v.1.15,2013-02-17 02:19:00,
2013-02-16 18:24:00,68.0,26.6,29.95,NW,313,0.0,1.0,21,0.00,,,0.00,0,Wunderground v.1.15,2013-02-17 02:24:00,
2013-02-16 18:30:00,67.7,23.9,29.95,NW,313,0.0,0.0,19,0.00,,,0.00,0,Wunderground v.1.15,2013-02-17 02:30:00,
2013-02-16 18:39:00,66.9,23.3,29.95,NW,313,0.0,0.0,19,0.00,,,0.00,0,Wunderground v.1.15,2013-02-17 02:39:00,
2013-02-16 18:49:00,66.5,24.2,29.96,NW,313,0.0,0.0,20,0.00,,,0.00,0,Wunderground v.1.15,2013-02-17 02:49:00,
2013-02-16 18:54:00,66.2,22.7,29.96,NW,313,2.0,2.0,19,0.00,,,0.00,0,Wunderground v.1.15,2013-02-17 02:54:00,
2013-02-16 18:59:00,66.0,24.9,29.96,NW,313,0.0,0.0,21,0.00,,,0.00,0,Wunderground v.1.15,2013-02-17 02:59:00,
2013-02-16 19:05:00,65.9,27.0,29.96,NW,313,0.0,0.0,23,0.00,,,0.00,0,Wunderground v.1.15,2013-02-17 03:05:00,
2013-02-16 19:14:00,65.5,28.7,29.96,NW,313,0.0,0.0,25,0.00,,,0.00,0,Wunderground v.1.15,2013-02-17 03:14:00,
2013-02-16 19:19:00,65.5,27.7,29.96,NW,313,0.0,0.0,24,0.00,,,0.00,0,Wunderground v.1.15,2013-02-17 03:19:00,
2013-02-16 19:24:00,65.2,24.2,29.96,NW,313,0.0,0.0,21,0.00,,,0.00,0,Wunderground v.1.15,2013-02-17 03:24:00,
2013-02-16 19:30:00,65.2,27.5,29.95,NW,313,0.0,0.0,24,0.00,,,0.00,0,Wunderground v.1.15,2013-02-17 03:30:00,
2013-02-16 19:39:00,64.7,24.9,29.95,NW,314,0.0,0.0,22,0.00,,,0.00,0,Wunderground v.1.15,2013-02-17 03:39:00,
2013-02-16 19:44:00,64.5,25.8,29.95,NW,313,0.0,0.0,23,0.00,,,0.00,0,Wunderground v.1.15,2013-02-17 03:44:00,
2013-02-16 19:54:00,63.9,23.2,29.95,NW,313,0.0,0.0,21,0.00,,,0.00,0,Wunderground v.1.15,2013-02-17 03:54:00,
2013-02-16 19:59:00,63.5,26.0,29.95,NW,313,0.0,0.0,24,0.00,,,0.00,0,Wunderground v.1.15,2013-02-17 03:59:00,
2013-02-16 20:04:00,63.4,23.8,29.95,NW,313,0.0,0.0,22,0.00,,,0.00,0,Wunderground v.1.15,2013-02-17 04:04:00,
2013-02-16 20:14:00,63.1,27.6,29.95,NW,313,0.0,0.0,26,0.00,,,0.00,0,Wunderground v.1.15,2013-02-17 04:14:00,
2013-02-16 20:20:00,63.0,28.5,29.95,NW,313,0.0,0.0,27,0.00,,,0.00,0,Wunderground v.1.15,2013-02-17 04:20:00,
2013-02-16 20:29:00,62.8,28.3,29.95,NW,313,0.0,0.0,27,0.00,,,0.00,0,Wunderground v.1.15,2013-02-17 04:29:00,
2013-02-16 20:39:00,62.5,28.0,29.95,NW,313,0.0,0.0,27,0.00,,,0.00,0,Wunderground v.1.15,2013-02-17 04:39:00,
2013-02-16 20:44:00,62.4,26.1,29.95,NW,313,0.0,0.0,25,0.00,,,0.00,0,Wunderground v.1.15,2013-02-17 04:44:00,
2013-02-16 20:50:00,62.2,24.9,29.95,NW,313,0.0,0.0,24,0.00,,,0.00,0,Wunderground v.1.15,2013-02-17 04:50:00,
2013-02-16 20:59:00,61.9,24.7,29.96,NW,313,0.0,0.0,24,0.00,,,0.00,0,Wunderground v.1.15,2013-02-17 04:59:00,
2013-02-16 21:04:00,61.6,24.4,29.96,NW,313,0.0,0.0,24,0.00,,,0.00,0,Wunderground v.1.15,2013-02-17 05:04:00,
2013-02-16 21:14:00,61.1,25.9,29.96,NW,313,0.0,0.0,26,0.00,,,0.00,0,Wunderground v.1.15,2013-02-17 05:14:00,
2013-02-16 21:19:00,61.0,26.7,29.96,NW,313,0.0,0.0,27,0.00,,,0.00,0,Wunderground v.1.15,2013-02-17 05:19:00,
2013-02-16 21:24:00,60.9,26.7,29.96,NW,313,0.0,0.0,27,0.00,,,0.00,0,Wunderground v.1.15,2013-02-17 05:24:00,
2013-02-16 21:29:00,60.8,26.6,29.96,NW,313,0.0,0.0,27,0.00,,,0.00,0,Wunderground v.1.15,2013-02-17 05:29:00,
2013-02-16 21:39:00,60.7,27.4,29.95,NW,313,0.0,0.0,28,0.00,,,0.00,0,Wunderground v.1.15,2013-02-17 05:39:00,
2013-02-16 21:44:00,60.6,26.4,29.96,NW,313,0.0,0.0,27,0.00,,,0.00,0,Wunderground v.1.15,2013-02-17 05:44:00,
2013-02-16 21:54:00,60.4,26.2,29.95,NW,313,0.0,0.0,27,0.00,,,0.00,0,Wunderground v.1.15,2013-02-17 05:54:00,
2013-02-16 21:59:00,60.2,26.9,29.95,NW,313,0.0,0.0,28,0.00,,,0.00,0,Wunderground v.1.15,2013-02-17 05:59:00,
2013-02-16 22:04:00,60.0,26.8,29.95,NW,313,0.0,0.0,28,0.00,,,0.00,0,Wunderground v.1.15,2013-02-17 06:04:00,
2013-02-16 22:15:00,59.7,28.2,29.95,NW,313,0.0,0.0,30,0.00,,,0.00,0,Wunderground v.1.15,2013-02-17 06:15:00,
2013-02-16 22:24:00,59.2,25.2,29.95,NW,313,0.0,0.0,27,0.00,,,0.00,0,Wunderground v.1.15,2013-02-17 06:24:00,
2013-02-16 22:29:00,58.8,24.9,29.95,NW,313,0.0,0.0,27,0.00,,,0.00,0,Wunderground v.1.15,2013-02-17 06:29:00,
2013-02-16 22:39:00,58.0,24.2,29.95,NW,313,0.0,0.0,27,0.00,,,0.00,0,Wunderground v.1.15,2013-02-17 06:39:00,
2013-02-16 22:44:00,57.8,24.9,29.95,SE,142,0.0,0.0,28,0.00,,,0.00,0,Wunderground v.1.15,2013-02-17 06:44:00,
2013-02-16 22:54:00,58.3,29.3,29.95,South,190,3.0,3.0,33,0.00,,,0.00,0,Wunderground v.1.15,2013-02-17 06:54:00,
2013-02-16 22:59:00,58.4,31.5,29.95,South,189,2.0,2.0,36,0.00,,,0.00,0,Wunderground v.1.15,2013-02-17 06:59:00,
2013-02-16 23:04:00,58.2,29.2,29.95,SSW,205,0.0,2.0,33,0.00,,,0.00,0,Wunderground v.1.15,2013-02-17 07:04:00,
2013-02-16 23:14:00,58.1,27.6,29.95,SSW,202,1.0,1.0,31,0.00,,,0.00,0,Wunderground v.1.15,2013-02-17 07:14:00,
2013-02-16 23:25:00,57.4,31.3,29.95,SSW,197,0.0,2.0,37,0.00,,,0.00,0,Wunderground v.1.15,2013-02-17 07:25:00,
2013-02-16 23:34:00,57.0,32.3,29.95,SSW,197,0.0,0.0,39,0.00,,,0.00,0,Wunderground v.1.15,2013-02-17 07:34:00,
2013-02-16 23:44:00,56.6,33.2,29.95,SSW,197,0.0,0.0,41,0.00,,,0.00,0,Wunderground v.1.15,2013-02-17 07:44:00,
2013-02-16 23:49:00,56.3,33.5,29.95,SSW,197,1.0,1.0,42,0.00,,,0.00,0,Wunderground v.1.15,2013-02-17 07:49:00,
2013-02-16 23:54:00,56.1,33.9,29.95,SSW,197,0.0,1.0,43,0.00,,,0.00,0,Wunderground v.1.15,2013-02-17 07:54:00,